Time;durP1;ratioP1;P1;durP2;ratioP2;P2;SDS_P1;SDS_P2;PMS_P1;PMS_P2;Temp;Humidity;BMP_temperature;BMP_pressure;BME280_temperature;BME280_humidity;BME280_pressure;Samples;Min_cycle;Max_cycle;Signal;HPM_P1;HPM_P2
2023/02/24 00:02:00;;;;;;;63.47;34.90;;;7.50;99.90;;;6.92;100.00;97382.94;5036997;28;20052;-64
2023/02/24 00:04:37;;;;;;;69.13;36.40;;;7.60;99.90;;;6.86;100.00;97383.97;5035397;28;20051;-64
2023/02/24 00:07:09;;;;;;;69.97;35.55;;;7.50;99.90;;;6.89;100.00;97380.47;5035833;28;20478;-65
2023/02/24 00:09:37;;;;;;;73.85;37.20;;;7.50;99.90;;;6.81;100.00;97377.28;5031529;28;20059;-66
2023/02/24 00:12:09;;;;;;;60.38;34.20;;;7.40;99.90;;;6.75;100.00;97380.91;5034738;28;20144;-66
2023/02/24 00:14:40;;;;;;;70.85;36.38;;;7.40;99.90;;;6.78;100.00;97377.38;5030478;28;20119;-65
2023/02/24 00:17:09;;;;;;;61.42;34.92;;;7.30;99.90;;;6.63;100.00;97374.34;5037147;28;20048;-64
2023/02/24 00:19:37;;;;;;;67.88;36.72;;;7.30;99.90;;;6.72;100.00;97380.97;5034119;28;20141;-65
2023/02/24 00:22:06;;;;;;;71.82;35.92;;;7.30;99.90;;;6.75;100.00;97369.72;5035342;28;21666;-65
2023/02/24 00:24:34;;;;;;;66.35;35.33;;;7.30;99.90;;;6.63;100.00;97365.78;5040248;28;20049;-65
2023/02/24 00:27:10;;;;;;;69.93;35.17;;;7.20;99.90;;;6.64;100.00;97370.06;5015485;28;20044;-65
2023/02/24 00:29:38;;;;;;;65.72;35.63;;;7.20;99.90;;;6.57;100.00;97365.97;5036465;28;20056;-65
2023/02/24 00:32:06;;;;;;;73.30;36.65;;;7.20;99.90;;;6.57;100.00;97363.38;5038354;28;20102;-65
2023/02/24 00:34:36;;;;;;;63.90;33.28;;;7.20;99.90;;;6.58;100.00;97362.50;5034631;28;20056;-65
2023/02/24 00:37:07;;;;;;;66.97;34.20;;;7.20;99.90;;;6.59;100.00;97361.59;5032717;28;20412;-65
2023/02/24 00:39:35;;;;;;;62.42;34.80;;;7.20;99.90;;;6.65;100.00;97359.69;5031730;28;20048;-65
2023/02/24 00:42:05;;;;;;;72.22;34.53;;;7.20;99.90;;;6.61;100.00;97360.66;5035927;28;20048;-65
2023/02/24 00:44:45;;;;;;;70.68;34.95;;;7.20;99.90;;;6.67;100.00;97357.91;5033257;28;20077;-65
2023/02/24 00:47:15;;;;;;;66.57;33.22;;;7.20;99.90;;;6.73;100.00;97356.03;5030264;28;20045;-65
2023/02/24 00:49:42;;;;;;;64.75;33.22;;;7.20;99.90;;;6.79;100.00;97348.94;5034841;28;20057;-65
2023/02/24 00:52:19;;;;;;;59.53;34.05;;;7.30;99.90;;;6.66;100.00;97342.47;5033059;28;20053;-64
2023/02/24 00:54:49;;;;;;;70.85;35.63;;;7.30;99.90;;;6.70;100.00;97342.34;5048216;28;20048;-65
2023/02/24 00:57:17;;;;;;;70.40;34.22;;;7.20;99.90;;;6.69;100.00;97337.22;5035556;28;20053;-65
2023/02/24 00:59:50;;;;;;;61.25;32.55;;;7.20;99.90;;;6.64;100.00;97337.38;5035870;28;20049;-65
2023/02/24 01:02:17;;;;;;;66.22;33.03;;;7.20;99.90;;;6.64;100.00;97334.78;5033253;28;20045;-65
2023/02/24 01:04:44;;;;;;;72.53;35.08;;;7.20;99.90;;;6.62;100.00;97331.41;5030186;28;20335;-65
2023/02/24 01:07:12;;;;;;;67.57;33.97;;;7.10;99.90;;;6.59;100.00;97336.69;5032633;28;20691;-65
2023/02/24 01:09:40;;;;;;;63.80;33.60;;;7.10;99.90;;;6.58;100.00;97334.97;5030463;28;20041;-65
2023/02/24 01:14:56;;;;;;;68.07;33.22;;;7.10;99.90;;;6.48;100.00;97333.56;5032067;28;20057;-65
2023/02/24 01:17:24;;;;;;;68.00;34.30;;;7.10;99.90;;;6.54;100.00;97335.13;5033423;28;20504;-65
2023/02/24 01:19:51;;;;;;;69.75;33.53;;;7.10;99.90;;;6.48;100.00;97334.41;5030422;28;20172;-65
2023/02/24 01:22:20;;;;;;;69.50;33.25;;;7.10;99.90;;;6.51;100.00;97338.63;5030806;28;20053;-65
2023/02/24 01:24:48;;;;;;;64.50;32.15;;;7.10;99.90;;;6.57;100.00;97335.00;5034521;28;20054;-65
2023/02/24 01:27:19;;;;;;;68.90;34.88;;;7.10;99.90;;;6.52;100.00;97326.56;5032288;28;20149;-65
2023/02/24 01:29:47;;;;;;;70.60;32.97;;;7.10;99.90;;;6.50;100.00;97334.38;5037552;28;20076;-65
2023/02/24 01:32:19;;;;;;;72.95;32.70;;;7.10;99.90;;;6.46;100.00;97336.19;5031752;28;20123;-65
2023/02/24 01:34:50;;;;;;;64.22;32.65;;;7.10;99.90;;;6.55;100.00;97329.91;5030833;28;20052;-65
2023/02/24 01:37:18;;;;;;;60.42;31.83;;;7.20;99.90;;;6.55;100.00;97327.34;5034703;28;20049;-65
2023/02/24 01:39:46;;;;;;;68.07;33.10;;;7.20;99.90;;;6.48;100.00;97318.09;5033335;28;20150;-65
2023/02/24 01:42:18;;;;;;;65.57;32.13;;;7.20;99.90;;;6.49;100.00;97310.31;5035245;28;20049;-65
2023/02/24 01:44:45;;;;;;;63.13;32.55;;;7.20;99.90;;;6.47;100.00;97314.66;5034653;28;20519;-65
2023/02/24 01:47:19;;;;;;;70.45;31.67;;;7.20;99.90;;;6.47;100.00;97306.09;5031973;28;20081;-65
2023/02/24 01:49:51;;;;;;;67.25;32.38;;;7.10;99.90;;;6.41;100.00;97303.69;5029048;28;20111;-65
2023/02/24 01:52:22;;;;;;;66.63;32.08;;;7.10;99.90;;;6.47;100.00;97309.50;5034005;28;20060;-65
2023/02/24 01:54:57;;;;;;;63.88;30.80;;;7.10;99.90;;;6.50;100.00;97308.59;5033425;28;20072;-65
2023/02/24 01:57:28;;;;;;;57.88;29.27;;;7.10;99.90;;;6.46;100.00;97304.41;5018424;28;20131;-65
2023/02/24 02:00:08;;;;;;;60.25;29.63;;;7.10;99.90;;;6.53;100.00;97298.19;5037196;28;20068;-65
2023/02/24 02:02:37;;;;;;;64.30;31.83;;;7.10;99.90;;;6.49;100.00;97299.16;5035812;28;20045;-65
2023/02/24 02:05:08;;;;;;;61.65;30.75;;;7.10;99.90;;;6.43;100.00;97294.19;5031596;28;20049;-65
2023/02/24 02:07:39;;;;;;;56.38;29.08;;;7.10;99.90;;;6.50;100.00;97295.72;5032846;28;20136;-65
2023/02/24 02:10:08;;;;;;;64.05;30.30;;;7.20;99.90;;;6.49;100.00;97294.00;5031320;28;20072;-65
2023/02/24 02:12:42;;;;;;;68.28;30.92;;;7.10;99.90;;;6.37;100.00;97284.06;5031070;28;20072;-65
2023/02/24 02:15:19;;;;;;;56.47;27.08;;;7.00;99.90;;;6.46;100.00;97287.22;5033098;28;20045;-64
2023/02/24 02:18:27;;;;;;;57.70;30.05;;;7.10;99.90;;;6.44;100.00;97283.00;5033142;28;20056;-64
2023/02/24 02:21:14;;;;;;;58.60;28.05;;;7.00;99.90;;;6.48;100.00;97274.28;5029789;28;20053;-64
2023/02/24 02:24:08;;;;;;;57.50;29.58;;;7.10;99.90;;;6.35;100.00;97268.66;5031788;28;20045;-64
2023/02/24 02:26:47;;;;;;;61.83;28.48;;;7.10;99.90;;;6.43;100.00;97270.97;5038376;28;20075;-64
2023/02/24 02:29:45;;;;;;;58.75;27.20;;;7.00;99.90;;;6.45;100.00;97275.22;5030641;28;20128;-64
2023/02/24 02:32:41;;;;;;;59.67;28.02;;;7.10;99.90;;;6.32;100.00;97258.44;5031159;28;20417;-64
2023/02/24 02:35:22;;;;;;;59.47;28.10;;;7.00;99.90;;;6.40;100.00;97271.09;5033148;28;20504;-64
2023/02/24 02:38:25;;;;;;;61.50;28.55;;;7.00;99.90;;;6.51;100.00;97269.00;5030424;28;20081;-64
2023/02/24 02:41:16;;;;;;;58.35;28.50;;;7.00;99.90;;;6.41;100.00;97259.88;5033831;28;20482;-64
2023/02/24 02:44:04;;;;;;;63.10;31.25;;;7.00;99.90;;;6.36;100.00;97254.00;5039790;28;20474;-64
2023/02/24 02:46:44;;;;;;;55.38;27.58;;;7.00;99.90;;;6.27;100.00;97243.13;5030291;28;20529;-64
2023/02/24 02:49:24;;;;;;;59.97;28.83;;;6.90;99.90;;;6.38;100.00;97239.34;5034268;28;20049;-64
2023/02/24 02:52:00;;;;;;;62.22;29.38;;;6.90;99.90;;;6.33;100.00;97242.06;5034220;28;20080;-64
2023/02/24 02:54:52;;;;;;;58.38;28.48;;;6.90;99.90;;;6.25;100.00;97238.91;5032732;28;20038;-64
2023/02/24 02:57:26;;;;;;;60.75;28.60;;;6.90;99.90;;;6.24;100.00;97238.03;5035539;28;20056;-64
2023/02/24 03:00:12;;;;;;;58.60;29.33;;;6.90;99.90;;;6.29;100.00;97243.03;5032936;28;20664;-64
2023/02/24 03:02:44;;;;;;;58.28;27.42;;;6.90;99.90;;;6.34;100.00;97240.31;5032250;28;20080;-64
2023/02/24 03:05:16;;;;;;;59.92;29.27;;;6.90;99.90;;;6.37;100.00;97241.09;5037860;28;20057;-64
2023/02/24 03:07:50;;;;;;;61.28;30.75;;;6.90;99.90;;;6.45;100.00;97230.53;5031526;28;20053;-64
2023/02/24 03:10:28;;;;;;;63.28;30.30;;;6.90;99.90;;;6.36;100.00;97223.06;5034068;28;20084;-64
2023/02/24 03:12:58;;;;;;;57.03;29.13;;;6.90;99.90;;;6.31;100.00;97219.81;5030379;28;20049;-65
2023/02/24 03:15:29;;;;;;;59.75;28.95;;;6.90;99.90;;;6.38;100.00;97216.97;5032288;28;20049;-65
2023/02/24 03:18:09;;;;;;;60.25;29.48;;;6.90;99.90;;;6.36;100.00;97215.34;5033025;28;20051;-65
2023/02/24 03:20:45;;;;;;;55.97;27.80;;;6.90;99.90;;;6.42;100.00;97222.91;5034030;28;20049;-65
2023/02/24 03:23:24;;;;;;;52.22;26.92;;;6.90;99.90;;;6.43;100.00;97225.44;5030557;28;20052;-65
2023/02/24 03:26:10;;;;;;;58.38;28.33;;;7.00;99.90;;;6.39;100.00;97217.84;5032721;28;20046;-65
2023/02/24 03:28:47;;;;;;;57.80;28.10;;;7.00;99.90;;;6.30;100.00;97215.56;5031123;28;20049;-65
2023/02/24 03:31:33;;;;;;;64.20;30.08;;;6.90;99.90;;;6.34;100.00;97218.00;5021657;28;20802;-65
2023/02/24 03:34:07;;;;;;;58.42;28.63;;;6.90;99.90;;;6.38;100.00;97211.00;5030387;28;20154;-65
2023/02/24 03:36:34;;;;;;;61.95;29.92;;;6.90;99.90;;;6.23;100.00;97215.75;5033214;28;20048;-65
2023/02/24 03:39:03;;;;;;;60.03;28.30;;;6.90;99.90;;;6.23;100.00;97220.06;5028878;28;20049;-65
2023/02/24 03:41:58;;;;;;;60.45;28.63;;;6.90;99.90;;;6.30;100.00;97218.97;5031312;28;20048;-65
2023/02/24 03:44:25;;;;;;;61.33;30.05;;;6.90;99.90;;;6.33;100.00;97220.59;5032271;28;20531;-65
2023/02/24 03:46:54;;;;;;;68.15;29.75;;;6.90;99.90;;;6.27;100.00;97212.19;5030483;28;20063;-65
2023/02/24 03:49:24;;;;;;;58.22;26.92;;;6.90;99.90;;;6.27;100.00;97221.63;5029498;28;20164;-65
2023/02/24 03:51:55;;;;;;;58.50;29.05;;;6.90;99.90;;;6.34;100.00;97214.53;5032636;28;20519;-66
2023/02/24 03:54:47;;;;;;;55.35;28.17;;;6.90;99.90;;;6.36;100.00;97211.03;5034165;28;20045;-65
2023/02/24 03:57:27;;;;;;;61.25;29.90;;;6.90;99.90;;;6.22;100.00;97214.03;5033070;28;20584;-64
2023/02/24 04:00:24;;;;;;;52.83;26.77;;;6.90;99.90;;;6.33;100.00;97218.03;5032734;28;20136;-65
2023/02/24 04:03:26;;;;;;;58.30;27.95;;;6.90;99.90;;;6.44;100.00;97218.53;5028942;28;20546;-65
2023/02/24 04:06:20;;;;;;;54.72;25.80;;;7.00;99.90;;;6.48;100.00;97213.22;5030054;28;20060;-65
2023/02/24 04:09:32;;;;;;;48.75;24.23;;;7.00;99.90;;;6.57;100.00;97217.25;5030489;28;20175;-65
2023/02/24 04:12:20;;;;;;;58.70;26.92;;;7.10;99.90;;;6.41;100.00;97213.47;4993212;28;20077;-65
2023/02/24 04:15:03;;;;;;;57.15;27.52;;;7.10;99.90;;;6.63;100.00;97208.47;5033943;28;20504;-64
2023/02/24 04:17:45;;;;;;;58.95;27.42;;;7.10;99.90;;;6.64;100.00;97202.44;5037152;28;20080;-64
2023/02/24 04:20:17;;;;;;;56.90;28.40;;;7.10;99.90;;;6.46;100.00;97190.97;5042903;28;20140;-65
2023/02/24 04:22:50;;;;;;;49.88;26.55;;;7.10;99.90;;;6.46;100.00;97185.81;5036953;28;20512;-65
2023/02/24 04:25:23;;;;;;;57.95;28.00;;;7.10;99.90;;;6.45;100.00;97186.69;5018085;28;20048;-65
2023/02/24 04:27:53;;;;;;;54.38;25.85;;;7.10;99.90;;;6.56;100.00;97181.19;5032666;28;20107;-65
2023/02/24 04:30:25;;;;;;;52.67;25.88;;;7.00;99.90;;;6.53;100.00;97189.03;5033640;28;20079;-65
2023/02/24 04:32:52;;;;;;;52.25;25.75;;;7.10;99.90;;;6.67;100.00;97185.09;5033936;28;20048;-65
2023/02/24 04:35:21;;;;;;;51.33;24.00;;;7.20;99.90;;;6.70;100.00;97172.13;5034638;28;20844;-65
2023/02/24 04:37:49;;;;;;;48.13;24.17;;;7.20;99.90;;;6.72;100.00;97166.06;5022870;28;20044;-65
2023/02/24 04:40:22;;;;;;;53.15;27.52;;;7.20;99.90;;;6.69;100.00;97160.09;5033490;28;20047;-65
2023/02/24 04:42:51;;;;;;;54.38;24.83;;;7.30;99.90;;;6.71;100.00;97160.06;5037701;28;20128;-65
2023/02/24 04:45:29;;;;;;;48.03;24.50;;;7.20;99.90;;;6.76;100.00;97150.44;5032820;28;20045;-65
2023/02/24 04:48:02;;;;;;;48.97;25.90;;;7.30;99.90;;;6.81;100.00;97150.25;5036581;28;20533;-65
2023/02/24 04:50:34;;;;;;;50.83;24.17;;;7.30;99.90;;;6.82;100.00;97150.22;5034636;28;20080;-65
2023/02/24 04:53:12;;;;;;;51.35;27.10;;;7.30;99.90;;;6.70;100.00;97137.72;5036157;28;20076;-65
2023/02/24 04:55:42;;;;;;;55.25;26.95;;;7.30;99.90;;;6.65;100.00;97134.47;5032898;28;20526;-65
2023/02/24 04:58:18;;;;;;;50.92;26.20;;;7.30;99.90;;;6.59;100.00;97125.22;5033500;28;20183;-66
2023/02/24 05:00:51;;;;;;;61.22;29.73;;;7.30;99.90;;;6.47;100.00;97121.28;5033692;28;20049;-65
2023/02/24 05:03:22;;;;;;;56.42;29.58;;;7.20;99.90;;;6.45;100.00;97117.09;5033789;28;20045;-65
2023/02/24 05:05:58;;;;;;;54.83;25.80;;;7.20;99.90;;;6.45;100.00;97112.78;5032219;28;20156;-65
2023/02/24 05:08:28;;;;;;;60.42;27.60;;;7.20;99.90;;;6.60;100.00;97101.09;5035748;28;20481;-65
2023/02/24 05:10:57;;;;;;;53.42;27.00;;;7.20;99.90;;;6.63;100.00;97089.84;5034513;28;20060;-65
2023/02/24 05:13:27;;;;;;;54.78;27.10;;;7.20;99.90;;;6.63;100.00;97095.00;5034345;28;20534;-65
2023/02/24 05:15:58;;;;;;;53.92;26.05;;;7.20;99.90;;;6.68;100.00;97098.25;5031255;28;20049;-65
2023/02/24 05:18:28;;;;;;;52.80;25.77;;;7.20;99.90;;;6.62;100.00;97096.75;5033739;28;20046;-65
2023/02/24 05:23:44;;;;;;;50.17;24.98;;;7.20;99.90;;;6.51;100.00;97091.09;5034587;28;20045;-65
2023/02/24 05:26:16;;;;;;;54.00;26.23;;;7.20;99.90;;;6.65;100.00;97083.72;5031450;28;20067;-65
2023/02/24 05:28:51;;;;;;;63.22;29.25;;;7.20;99.90;;;6.48;100.00;97076.59;5042170;28;20053;-65
2023/02/24 05:31:27;;;;;;;63.92;28.08;;;7.10;99.90;;;6.42;100.00;97074.22;5019931;28;20368;-65
2023/02/24 05:34:01;;;;;;;61.17;30.25;;;7.00;99.90;;;6.35;100.00;97080.47;5033086;28;20050;-65
2023/02/24 05:36:33;;;;;;;58.67;29.50;;;7.00;99.90;;;6.28;100.00;97081.56;5035105;28;20048;-64
2023/02/24 05:39:08;;;;;;;56.92;26.63;;;7.00;99.90;;;6.37;100.00;97080.44;5033982;28;20046;-64
2023/02/24 05:41:40;;;;;;;52.72;26.20;;;7.00;99.90;;;6.28;100.00;97077.25;5035501;28;20041;-64
2023/02/24 05:44:22;;;;;;;46.67;24.65;;;6.90;99.90;;;6.36;100.00;97074.41;5033805;28;20049;-64
2023/02/24 05:46:56;;;;;;;53.97;24.98;;;7.00;99.90;;;6.43;100.00;97083.66;5033268;28;20049;-64
2023/02/24 05:49:33;;;;;;;52.47;25.60;;;7.00;99.90;;;6.61;100.00;97076.16;5030785;28;20053;-65
2023/02/24 05:52:08;;;;;;;52.47;24.50;;;7.10;99.90;;;6.61;100.00;97069.25;5032254;28;20053;-64
2023/02/24 05:54:39;;;;;;;47.97;24.15;;;7.10;99.90;;;6.56;100.00;97062.59;5031038;28;20388;-64
2023/02/24 05:57:19;;;;;;;50.50;25.17;;;7.10;99.90;;;6.53;100.00;97063.53;5032419;28;20072;-64
2023/02/24 05:59:50;;;;;;;47.00;24.08;;;7.10;99.90;;;6.64;100.00;97058.00;5034255;28;20045;-65
2023/02/24 06:02:26;;;;;;;50.78;25.50;;;7.20;99.90;;;6.41;100.00;97059.66;5035933;28;20053;-67
2023/02/24 06:04:54;;;;;;;51.17;26.40;;;7.20;99.90;;;6.52;100.00;97056.69;5029872;28;20053;-64
2023/02/24 06:07:27;;;;;;;60.22;28.08;;;7.20;99.90;;;6.39;100.00;97053.69;5033811;28;20757;-66
2023/02/24 06:09:58;;;;;;;55.70;26.13;;;7.20;99.90;;;6.55;100.00;97054.00;5037083;28;20153;-65
2023/02/24 06:12:32;;;;;;;57.10;28.67;;;7.20;99.90;;;6.48;100.00;97052.53;5034705;28;20068;-65
2023/02/24 06:14:59;;;;;;;59.55;28.10;;;7.20;99.90;;;6.51;100.00;97051.59;5033401;28;20483;-65
2023/02/24 06:17:28;;;;;;;61.00;29.52;;;7.20;99.90;;;6.42;100.00;97061.31;5036658;28;20441;-65
2023/02/24 06:19:55;;;;;;;58.47;26.45;;;7.10;99.90;;;6.31;100.00;97053.09;5035193;28;20056;-65
2023/02/24 06:22:24;;;;;;;60.95;28.10;;;7.00;99.90;;;6.16;100.00;97059.63;5036088;28;20056;-65
2023/02/24 06:24:53;;;;;;;56.63;27.40;;;6.90;99.90;;;6.14;100.00;97066.56;5032670;28;20049;-65
2023/02/24 06:27:23;;;;;;;51.55;23.67;;;7.00;99.90;;;6.30;100.00;97071.22;5035842;28;20060;-65
2023/02/24 06:29:53;;;;;;;57.10;25.48;;;7.00;99.90;;;6.30;100.00;97061.75;5038024;28;20053;-65
2023/02/24 06:32:24;;;;;;;59.00;27.63;;;7.00;99.90;;;6.21;100.00;97067.22;5036253;28;20171;-65
2023/02/24 06:34:52;;;;;;;63.13;28.73;;;6.90;99.90;;;6.18;100.00;97065.59;5033535;28;20708;-66
2023/02/24 06:37:21;;;;;;;61.40;28.30;;;6.90;99.90;;;6.24;100.00;97065.34;5018342;28;20049;-65
2023/02/24 06:39:48;;;;;;;53.20;26.75;;;6.90;99.90;;;6.17;100.00;97063.03;5034091;28;20045;-65
2023/02/24 06:42:15;;;;;;;56.63;26.98;;;6.90;99.90;;;6.33;100.00;97060.78;5037468;28;20126;-65
2023/02/24 06:44:42;;;;;;;51.88;24.85;;;6.90;99.90;;;6.33;100.00;97073.69;5031671;28;20457;-65
2023/02/24 06:47:13;;;;;;;55.30;26.25;;;6.90;99.90;;;6.42;100.00;97073.38;5033153;28;20056;-65
2023/02/24 06:49:43;;;;;;;67.78;30.08;;;7.00;99.90;;;6.25;100.00;97073.94;5035757;28;20490;-65
2023/02/24 06:52:17;;;;;;;64.68;31.05;;;6.90;99.90;;;6.30;100.00;97073.81;5033809;28;20049;-65
2023/02/24 06:54:48;;;;;;;68.45;32.05;;;7.00;99.90;;;6.21;100.00;97068.03;5036470;28;20071;-65
2023/02/24 06:57:15;;;;;;;64.57;29.58;;;7.00;99.90;;;6.22;100.00;97074.03;5038375;28;20049;-66
2023/02/24 06:59:42;;;;;;;63.40;29.98;;;6.90;99.90;;;6.18;100.00;97080.19;5031674;28;20115;-65
2023/02/24 07:02:10;;;;;;;62.75;30.40;;;6.80;99.90;;;6.27;100.00;97075.59;5033849;28;20045;-65
2023/02/24 07:04:42;;;;;;;57.17;27.33;;;6.90;99.90;;;6.35;100.00;97074.47;5032956;28;20059;-66
2023/02/24 07:07:12;;;;;;;63.35;30.45;;;7.00;99.90;;;6.33;100.00;97078.84;5031601;28;20135;-65
2023/02/24 07:09:44;;;;;;;65.88;29.75;;;7.00;99.90;;;6.48;100.00;97066.28;5034000;28;20056;-65
2023/02/24 07:12:19;;;;;;;61.10;28.85;;;7.10;99.90;;;6.56;100.00;97063.41;5041255;28;20104;-66
2023/02/24 07:14:49;;;;;;;53.80;26.73;;;7.20;99.90;;;6.67;100.00;97057.91;5037709;28;20504;-66
2023/02/24 07:17:22;;;;;;;55.75;26.25;;;7.30;99.90;;;6.63;100.00;97062.31;5029365;28;20459;-65
2023/02/24 07:19:49;;;;;;;48.67;24.98;;;7.30;99.90;;;6.69;100.00;97048.38;5033165;28;20045;-65
2023/02/24 07:22:16;;;;;;;50.58;25.75;;;7.30;99.90;;;6.66;100.00;97056.19;5036613;28;20415;-65
2023/02/24 07:24:45;;;;;;;52.42;25.35;;;7.30;99.90;;;6.69;100.00;97059.53;5033437;28;20057;-65
2023/02/24 07:27:21;;;;;;;47.58;25.08;;;7.30;99.90;;;6.51;100.00;97060.16;5033121;28;20063;-65
2023/02/24 07:29:55;;;;;;;50.65;25.80;;;7.40;99.90;;;6.66;100.00;97066.50;5031904;28;20052;-65
2023/02/24 07:32:22;;;;;;;59.55;28.13;;;7.40;99.90;;;6.70;100.00;97055.19;5032305;28;20045;-65
2023/02/24 07:34:49;;;;;;;64.35;29.45;;;7.40;99.90;;;6.69;100.00;97061.25;5032271;28;20072;-65
2023/02/24 07:37:18;;;;;;;60.78;29.42;;;7.40;99.90;;;6.74;100.00;97050.78;5029142;28;20377;-65
2023/02/24 07:39:45;;;;;;;71.30;32.72;;;7.40;99.90;;;6.66;100.00;97036.44;5034123;28;20123;-66
2023/02/24 07:42:12;;;;;;;63.15;30.58;;;7.40;99.90;;;6.77;100.00;97037.75;5031846;28;20045;-65
2023/02/24 07:44:39;;;;;;;66.93;29.50;;;7.50;99.90;;;6.72;100.00;97030.19;5032219;28;20081;-65
2023/02/24 07:47:07;;;;;;;60.45;30.63;;;7.50;99.90;;;6.83;100.00;97022.06;5034719;28;20145;-66
2023/02/24 07:49:38;;;;;;;69.90;32.92;;;7.60;99.90;;;6.85;100.00;97015.13;5035438;28;20786;-66
2023/02/24 07:52:06;;;;;;;61.75;31.63;;;7.60;99.90;;;6.85;100.00;97026.28;5034356;28;20138;-65
2023/02/24 07:54:34;;;;;;;63.08;30.35;;;7.70;99.90;;;7.13;100.00;97022.66;5034898;28;20045;-66
2023/02/24 07:57:02;;;;;;;59.90;27.42;;;7.80;99.90;;;7.29;100.00;97021.19;5037595;28;20518;-65
2023/02/24 07:59:32;;;;;;;57.78;30.23;;;7.90;99.90;;;7.27;100.00;97020.41;5036535;28;20817;-66
2023/02/24 08:02:03;;;;;;;61.97;30.40;;;7.90;99.90;;;7.25;100.00;97014.47;5034812;28;20144;-66
2023/02/24 08:04:38;;;;;;;63.00;31.30;;;8.00;99.90;;;7.27;100.00;97010.06;5036117;28;20127;-66
2023/02/24 08:07:13;;;;;;;69.20;31.75;;;8.00;99.90;;;7.15;100.00;97005.38;5032852;28;20053;-67
2023/02/24 08:12:20;;;;;;;71.18;33.78;;;8.10;99.90;;;7.24;100.00;97006.78;5035210;28;20053;-65
2023/02/24 08:14:51;;;;;;;60.40;29.27;;;8.10;99.90;;;7.36;100.00;97003.72;5016467;28;20064;-65
2023/02/24 08:17:22;;;;;;;65.07;30.17;;;8.30;99.90;;;7.59;100.00;97000.22;5035114;28;20045;-65
2023/02/24 08:20:20;;;;;;;61.35;31.30;;;8.30;99.90;;;7.43;100.00;96996.56;5035926;28;20041;-65
2023/02/24 08:22:45;;;;;;;61.58;30.30;;;8.40;99.90;;;7.56;100.00;96989.19;5037195;28;20132;-65
2023/02/24 08:25:17;;;;;;;58.30;31.30;;;8.40;99.90;;;7.78;100.00;96976.22;5035622;28;20140;-65
2023/02/24 08:27:54;;;;;;;57.92;30.42;;;8.50;99.90;;;7.77;100.00;96967.66;5035548;28;20045;-65
2023/02/24 08:30:43;;;;;;;52.63;27.35;;;8.70;99.90;;;7.84;100.00;96958.72;5032941;28;20127;-65
2023/02/24 08:33:21;;;;;;;59.28;30.50;;;8.70;99.90;;;7.67;100.00;96959.44;5041858;28;20079;-65
2023/02/24 08:35:59;;;;;;;53.70;29.05;;;8.70;99.90;;;8.24;100.00;96951.06;5038155;28;20068;-65
2023/02/24 08:38:38;;;;;;;55.22;29.98;;;8.80;99.90;;;8.18;100.00;96944.38;5034251;28;20543;-65
2023/02/24 08:41:16;;;;;;;53.83;28.98;;;8.90;99.90;;;8.27;100.00;96932.81;5037980;28;20107;-65
2023/02/24 08:43:45;;;;;;;53.67;29.80;;;9.10;99.90;;;8.84;100.00;96933.72;5034441;28;20413;-65
2023/02/24 08:46:18;;;;;;;58.22;30.58;;;9.40;99.90;;;8.47;100.00;96930.22;5036067;28;20156;-64
2023/02/24 08:48:55;;;;;;;53.38;33.40;;;9.50;99.90;;;9.06;100.00;96931.00;5036611;28;20163;-65
2023/02/24 08:51:33;;;;;;;56.00;32.08;;;9.80;99.90;;;9.12;100.00;96925.53;5037299;28;20073;-66
2023/02/24 08:54:15;;;;;;;54.95;32.58;;;10.20;99.90;;;8.95;100.00;96921.13;5038996;28;20420;-65
2023/02/24 08:56:54;;;;;;;51.20;30.10;;;10.30;99.90;;;8.76;100.00;96915.97;5031958;28;20049;-65
2023/02/24 08:59:36;;;;;;;57.30;34.00;;;10.20;99.90;;;8.57;100.00;96904.78;5034497;28;20137;-65
2023/02/24 09:04:57;;;;;;;58.95;32.08;;;9.90;99.90;;;7.89;100.00;96899.97;5035354;28;20045;-65
2023/02/24 09:07:34;;;;;;;59.78;35.53;;;9.80;99.90;;;8.36;100.00;96901.38;5034510;28;20045;-65
2023/02/24 09:10:06;;;;;;;60.42;34.75;;;9.70;99.90;;;8.35;100.00;96903.13;5040987;28;20045;-65
2023/02/24 09:12:39;;;;;;;52.10;29.20;;;9.90;99.90;;;8.13;100.00;96904.97;5032088;28;20075;-65
2023/02/24 09:15:10;;;;;;;56.55;31.95;;;9.80;99.90;;;8.78;100.00;96897.78;5035579;28;20045;-65
2023/02/24 09:17:39;;;;;;;58.13;32.42;;;9.80;99.90;;;8.87;100.00;96897.38;5033230;28;20048;-66
2023/02/24 09:20:54;;;;;;;57.33;31.55;;;10.00;99.90;;;8.43;100.00;96891.63;5037073;28;20042;-64
2023/02/24 09:23:03;;;;;;;47.38;27.45;;;10.00;99.90;;;8.14;100.00;96888.56;5032072;28;20049;-66
2023/02/24 09:25:48;;;;;;;42.67;24.75;;;10.10;99.90;;;9.14;100.00;96873.66;5036385;28;20137;-66
2023/02/24 09:28:24;;;;;;;42.60;25.27;;;10.20;99.90;;;8.78;100.00;96874.50;5032528;28;20049;-64
2023/02/24 09:31:03;;;;;;;42.35;24.55;;;10.40;99.90;;;9.41;100.00;96861.13;5034232;28;20068;-64
2023/02/24 09:33:40;;;;;;;42.67;25.73;;;10.50;99.90;;;8.97;100.00;96870.13;5036062;28;20131;-65
2023/02/24 09:36:12;;;;;;;41.35;24.60;;;10.70;99.90;;;8.52;100.00;96862.75;5033757;28;20405;-65
2023/02/24 09:44:44;;;;;;;45.20;25.35;;;10.20;99.90;;;8.10;100.00;96858.59;5036865;28;20057;-64
2023/02/24 09:47:55;;;;;;;43.00;22.25;;;10.00;99.90;;;8.27;100.00;96863.00;5037771;28;20079;-65
2023/02/24 09:51:05;;;;;;;36.67;21.85;;;10.10;99.90;;;8.40;100.00;96859.00;5033025;28;20045;-65
2023/02/24 09:53:51;;;;;;;38.35;22.33;;;10.00;99.90;;;8.85;100.00;96857.78;5034231;28;20059;-65
2023/02/24 09:56:31;;;;;;;41.58;22.83;;;10.00;99.90;;;9.35;100.00;96851.91;5038389;28;20053;-65
2023/02/24 09:59:24;;;;;;;38.80;24.08;;;10.30;99.90;;;9.43;100.00;96843.75;5034556;28;20071;-65
2023/02/24 10:02:19;;;;;;;39.60;21.85;;;10.60;99.90;;;9.47;100.00;96837.53;5034387;28;20164;-65
2023/02/24 10:05:19;;;;;;;39.13;22.77;;;10.70;99.90;;;9.24;100.00;96830.91;5034058;28;20059;-65
2023/02/24 10:07:47;;;;;;;31.80;18.55;;;10.80;99.90;;;8.91;100.00;96838.53;5032162;28;20046;-65
2023/02/24 10:10:27;;;;;;;35.33;21.65;;;10.70;99.90;;;8.36;100.00;96828.97;5030516;28;20048;-65
2023/02/24 10:13:13;;;;;;;37.40;20.92;;;10.60;99.90;;;9.06;100.00;96822.28;5025721;28;20440;-65
2023/02/24 10:15:57;;;;;;;34.33;19.90;;;10.50;99.90;;;9.29;100.00;96808.19;5027291;28;20045;-65
2023/02/24 10:18:32;;;;;;;31.17;18.30;;;10.80;99.90;;;9.89;100.00;96810.31;5034083;28;20045;-65
2023/02/24 10:21:48;;;;;;;27.77;17.27;;;11.20;99.90;;;9.97;100.00;96797.81;5029144;28;20125;-65
2023/02/24 10:24:28;;;;;;;28.15;16.90;;;11.40;99.90;;;9.70;100.00;96794.91;5037292;28;20049;-65
2023/02/24 10:27:12;;;;;;;23.92;14.70;;;11.50;99.90;;;9.98;100.00;96796.03;5032326;28;20057;-66
2023/02/24 10:30:18;;;;;;;24.10;14.63;;;11.60;99.90;;;9.67;100.00;96787.28;5032604;28;20061;-65
2023/02/24 10:32:59;;;;;;;28.02;17.25;;;11.60;99.90;;;9.52;100.00;96785.47;5028736;28;20124;-65
2023/02/24 10:35:32;;;;;;;29.27;17.90;;;11.40;99.90;;;9.83;100.00;96774.38;5027855;28;20099;-65
2023/02/24 10:38:04;;;;;;;27.92;17.02;;;11.40;99.90;;;10.07;100.00;96785.19;5031870;28;20137;-65
2023/02/24 10:40:45;;;;;;;28.30;16.10;;;11.50;99.90;;;10.20;100.00;96780.19;5030215;28;20081;-67
2023/02/24 10:43:30;;;;;;;30.23;18.07;;;11.60;99.90;;;10.26;100.00;96775.50;5027903;28;20477;-65
2023/02/24 10:46:15;;;;;;;30.83;18.48;;;11.60;99.90;;;9.29;100.00;96777.13;5034435;28;20049;-65
2023/02/24 10:48:59;;;;;;;29.67;17.52;;;11.70;99.90;;;9.40;100.00;96766.22;5028209;28;20060;-65
2023/02/24 10:51:40;;;;;;;28.85;16.95;;;11.50;99.90;;;9.54;100.00;96770.69;5035074;28;20049;-65
2023/02/24 10:54:43;;;;;;;28.63;17.42;;;11.40;99.90;;;9.65;100.00;96760.63;5039769;28;20080;-65
2023/02/24 10:57:35;;;;;;;31.48;18.05;;;11.30;99.90;;;9.84;100.00;96763.06;5033108;28;20045;-65
2023/02/24 11:03:07;;;;;;;29.30;17.42;;;11.10;99.90;;;9.83;100.00;96753.63;5030719;28;20556;-65
2023/02/24 11:05:42;;;;;;;28.95;16.63;;;11.20;99.90;;;9.94;100.00;96750.44;5031213;28;20045;-65